< < Back
Terminal Aerodrome Forecast


Current Version              Previous Versions:   1  2  3  4  5  6  7  8  9  

Terminal Aerodrome Forecast

995
FTUS44 KMOB 010500 RRA
TAFMOB
TAF
KMOB 010550Z 0106/0206 09003KT P6SM FEW030
     FM011000 00000KT 2SM BR SCT010
     FM011400 10004KT P6SM FEW010=

Latest METAR

927
SAUS80 KWBC 011200 CCA
MTRMOB
METAR KMOB 011156Z 00000KT 5SM BR FEW045 FEW120 18/18 A2995 RMK AO2
SLP138 7//// T01830183 10206 20178 53012


USA.gov is the U.S. government's official web portal to all federal, state and local government web resources and services.